KDTW/DTW METAR and TAF weather

Enter ICAO airport designator
Station Type Date Time Source
KDTW METAR 2020/09/22 01:53 UTC NOAA

KDTW 220153Z 08004KT 10SM FEW250 14/07 A3035 RMK AO2 SLP278 T01390067


Station Type Date Time Source
KDTW Decoded METAR 2020/09/22 01:53 UTC NOAA

DETROIT METROPOLITAN, MI, United States (KDTW) 42-14N 83-20W 195M
Sep 21, 2020 - 09:53 PM EDT / 2020.09.22 0153 UTC
Wind: from the E (080 degrees) at 5 MPH (4 KT):0
Visibility: 10 mile(s):0
Sky conditions: mostly clear
Temperature: 57.0 F (13.9 C)
Dew Point: 44.1 F (6.7 C)
Relative Humidity: 61%
Pressure (altimeter): 30.35 in. Hg (1027 hPa)
ob: KDTW 220153Z 08004KT 10SM FEW250 14/07 A3035 RMK AO2 SLP278 T01390067
cycle: 2

Station Type Date Time Source
KDTW TAF 2020/09/21 21:16 UTC NOAA

TAF
AMD KDTW 212114Z 2121/2224 14009KT P6SM SKC
FM220600 21003KT P6SM SKC
FM221400 23006KT P6SM BKN200

Example: see airport list